createdAt,value
2022-11-14T00:00:57.741Z,5.89
2022-11-14T00:03:30.847Z,5.87
2022-11-14T00:06:07.357Z,5.90
2022-11-14T00:08:43.804Z,5.91
2022-11-14T00:11:16.935Z,5.91
2022-11-14T00:13:45.572Z,5.91
2022-11-14T00:16:13.929Z,5.92
2022-11-14T00:18:48.780Z,5.94
2022-11-14T00:21:23.550Z,5.95
2022-11-14T00:23:58.468Z,5.93
2022-11-14T00:26:33.465Z,5.91
2022-11-14T00:29:08.360Z,5.90
2022-11-14T00:31:43.264Z,5.91
2022-11-14T00:34:16.352Z,5.91
2022-11-14T00:36:51.084Z,5.92
2022-11-14T00:39:26.104Z,5.92
2022-11-14T00:42:00.942Z,5.93
2022-11-14T00:44:35.500Z,5.93
2022-11-14T00:47:08.573Z,5.92
2022-11-14T00:49:41.658Z,5.91
2022-11-14T00:52:16.604Z,5.88
2022-11-14T00:54:51.469Z,5.87
2022-11-14T00:57:24.367Z,5.85
2022-11-14T00:59:57.417Z,5.86
2022-11-14T01:02:30.531Z,5.87
2022-11-14T01:05:03.657Z,5.89
2022-11-14T01:07:38.547Z,5.90
2022-11-14T01:10:13.524Z,5.88
2022-11-14T01:12:42.052Z,5.87
2022-11-14T01:15:17.148Z,5.87
2022-11-14T01:17:50.320Z,5.88
2022-11-14T01:20:19.286Z,5.88
2022-11-14T01:22:53.781Z,5.87
2022-11-14T01:25:28.550Z,5.86
2022-11-14T01:28:01.639Z,5.85
2022-11-14T01:30:34.699Z,5.83
2022-11-14T01:33:11.619Z,5.84
2022-11-14T01:35:44.472Z,5.83
2022-11-14T01:38:18.935Z,5.84
2022-11-14T01:40:47.696Z,5.84
2022-11-14T01:43:20.673Z,5.84
2022-11-14T01:45:59.580Z,5.86
2022-11-14T01:48:44.487Z,5.85
2022-11-14T01:51:31.576Z,5.85
2022-11-14T01:54:29.897Z,5.83
2022-11-14T01:57:05.446Z,5.80
2022-11-14T01:59:54.390Z,5.77
2022-11-14T02:02:29.267Z,5.75
2022-11-14T02:05:16.737Z,5.74
2022-11-14T02:07:49.750Z,5.72
2022-11-14T02:10:22.973Z,5.70
2022-11-14T02:12:56.064Z,5.71
2022-11-14T02:15:44.203Z,5.71
2022-11-14T02:18:23.081Z,5.73
2022-11-14T02:20:56.273Z,5.71
2022-11-14T02:23:32.562Z,5.70
2022-11-14T02:26:06.307Z,5.70
2022-11-14T02:28:39.481Z,5.71
2022-11-14T02:31:12.616Z,5.72
2022-11-14T02:33:48.017Z,5.71
2022-11-14T02:36:22.656Z,5.69
2022-11-14T02:38:57.143Z,5.69
2022-11-14T02:41:30.325Z,5.68
2022-11-14T02:44:03.392Z,5.69
2022-11-14T02:46:38.155Z,5.69
2022-11-14T02:49:11.260Z,5.69
2022-11-14T02:51:46.109Z,5.69
2022-11-14T02:54:19.000Z,5.68
2022-11-14T02:56:53.747Z,5.69
2022-11-14T02:59:28.717Z,5.69
2022-11-14T03:02:03.408Z,5.66
2022-11-14T03:04:38.229Z,5.63
2022-11-14T03:07:12.937Z,5.61
2022-11-14T03:09:45.902Z,5.61
2022-11-14T03:12:34.043Z,5.63
2022-11-14T03:15:11.501Z,5.62
2022-11-14T03:17:46.435Z,5.60
2022-11-14T03:20:22.066Z,5.56
2022-11-14T03:22:56.901Z,5.53
2022-11-14T03:25:29.876Z,5.51
2022-11-14T03:28:04.779Z,5.51
2022-11-14T03:30:43.607Z,5.50
2022-11-14T03:33:18.560Z,5.47
2022-11-14T03:35:53.756Z,5.45
2022-11-14T03:38:27.078Z,5.43
2022-11-14T03:41:15.409Z,5.41
2022-11-14T03:43:48.477Z,5.37
2022-11-14T03:46:21.420Z,5.35
2022-11-14T03:49:00.115Z,5.34
2022-11-14T03:51:34.762Z,5.31
2022-11-14T03:54:10.799Z,5.29
2022-11-14T03:56:45.435Z,5.27
2022-11-14T03:59:18.423Z,5.25
2022-11-14T04:01:52.962Z,5.23
2022-11-14T04:04:22.520Z,5.24
2022-11-14T04:06:56.037Z,5.25
2022-11-14T04:09:34.917Z,5.26
2022-11-14T04:12:11.367Z,5.24
2022-11-14T04:14:48.451Z,5.24
2022-11-14T04:17:23.497Z,5.24
2022-11-14T04:19:58.007Z,5.20
2022-11-14T04:22:32.840Z,5.14
2022-11-14T04:25:11.451Z,5.09
2022-11-14T04:27:46.100Z,5.03
2022-11-14T04:30:24.962Z,5.01
2022-11-14T04:32:57.973Z,4.99
2022-11-14T04:35:30.933Z,4.96
2022-11-14T04:38:04.317Z,4.94
2022-11-14T04:40:39.156Z,4.94
2022-11-14T04:43:14.196Z,4.95
2022-11-14T04:45:47.396Z,4.96
2022-11-14T04:48:22.131Z,4.96
2022-11-14T04:50:55.153Z,4.97
2022-11-14T04:53:29.927Z,4.98
2022-11-14T04:56:02.991Z,4.99
2022-11-14T04:58:37.615Z,4.99
2022-11-14T05:01:13.950Z,4.98
2022-11-14T05:03:48.670Z,4.99
2022-11-14T05:06:23.592Z,5.00
2022-11-14T05:08:57.973Z,4.99
2022-11-14T05:11:32.710Z,4.98
2022-11-14T05:14:07.647Z,4.98
2022-11-14T05:16:42.150Z,4.99
2022-11-14T05:19:21.011Z,5.00
2022-11-14T05:21:53.911Z,4.99
2022-11-14T05:24:29.055Z,4.99
2022-11-14T05:27:02.204Z,5.01
2022-11-14T05:29:35.106Z,5.01
2022-11-14T05:32:16.321Z,5.00
2022-11-14T05:34:50.947Z,4.99
2022-11-14T05:37:27.627Z,4.98
2022-11-14T05:40:01.931Z,4.99
2022-11-14T05:42:34.960Z,4.99
2022-11-14T05:45:10.343Z,5.00
2022-11-14T05:47:45.193Z,4.99
2022-11-14T05:50:18.281Z,5.00
2022-11-14T05:52:51.416Z,5.01
2022-11-14T05:55:25.232Z,5.02
2022-11-14T05:58:00.230Z,5.03
2022-11-14T06:00:39.484Z,5.03
2022-11-14T06:03:17.145Z,5.05
2022-11-14T06:05:51.690Z,5.05
2022-11-14T06:08:24.744Z,5.06
2022-11-14T06:11:02.364Z,5.06
2022-11-14T06:13:37.466Z,5.03
2022-11-14T06:16:20.321Z,5.03
2022-11-14T06:18:55.437Z,5.03
2022-11-14T06:21:31.788Z,5.01
2022-11-14T06:24:06.926Z,5.01
2022-11-14T06:26:39.980Z,5.00
2022-11-14T06:29:13.900Z,5.00
2022-11-14T06:31:43.482Z,5.01
2022-11-14T06:34:18.083Z,4.96
2022-11-14T06:36:52.744Z,5.01
2022-11-14T06:39:44.645Z,5.00
2022-11-14T06:42:19.328Z,4.98
2022-11-14T06:45:07.740Z,4.96
2022-11-14T06:47:42.325Z,4.96
2022-11-14T06:50:15.466Z,4.98
2022-11-14T06:53:07.611Z,4.97
2022-11-14T06:55:40.659Z,4.98
2022-11-14T06:58:13.730Z,4.99
2022-11-14T07:00:48.404Z,4.99
2022-11-14T07:03:23.234Z,5.00
2022-11-14T07:06:24.561Z,5.00
2022-11-14T07:09:00.283Z,5.01
2022-11-14T07:11:36.427Z,5.04
2022-11-14T07:14:15.322Z,5.05
2022-11-14T07:16:50.173Z,5.06
2022-11-14T07:19:24.935Z,5.05
2022-11-14T07:21:59.626Z,5.05
2022-11-14T07:24:36.350Z,5.06
2022-11-14T07:27:12.161Z,5.08
2022-11-14T07:29:45.280Z,5.11
2022-11-14T07:32:18.035Z,5.10
2022-11-14T07:34:46.479Z,5.11
2022-11-14T07:37:14.943Z,5.15
2022-11-14T07:39:44.405Z,5.18
2022-11-14T07:42:18.409Z,5.20
2022-11-14T07:44:46.850Z,5.23
2022-11-14T07:47:15.247Z,5.27
2022-11-14T07:49:44.220Z,5.28
2022-11-14T07:52:17.122Z,5.29
2022-11-14T07:54:45.664Z,5.30
2022-11-14T07:57:14.077Z,5.34
2022-11-14T07:59:47.211Z,5.39
2022-11-14T08:02:19.735Z,5.43
2022-11-14T08:04:48.340Z,5.44
2022-11-14T08:07:17.893Z,5.48
2022-11-14T08:09:46.401Z,5.56
2022-11-14T08:12:19.411Z,5.60
2022-11-14T08:14:48.532Z,5.64
2022-11-14T08:17:24.752Z,5.68
2022-11-14T08:19:57.589Z,5.76
2022-11-14T08:22:31.518Z,5.79
2022-11-14T08:25:00.218Z,5.79
2022-11-14T08:27:34.968Z,5.87
2022-11-14T08:30:08.771Z,5.94
2022-11-14T08:32:54.970Z,5.95
2022-11-14T08:35:27.754Z,5.97
2022-11-14T08:38:03.286Z,6.02
2022-11-14T08:40:32.327Z,6.14
2022-11-14T08:43:07.145Z,6.22
2022-11-14T08:45:42.154Z,6.25
2022-11-14T08:48:15.338Z,6.31
2022-11-14T08:50:50.467Z,6.35
2022-11-14T08:53:23.651Z,6.36
2022-11-14T08:55:58.422Z,6.40
2022-11-14T08:58:34.773Z,6.45
2022-11-14T09:01:11.817Z,6.56
2022-11-14T09:03:45.244Z,6.68
2022-11-14T09:06:18.418Z,6.66
2022-11-14T09:08:53.379Z,6.79
2022-11-14T09:11:26.368Z,6.95
2022-11-14T09:13:59.511Z,6.99
2022-11-14T09:16:33.974Z,7.01
2022-11-14T09:19:07.085Z,6.99
2022-11-14T09:21:41.835Z,6.98
2022-11-14T09:24:14.964Z,6.96
2022-11-14T09:26:56.571Z,6.89
2022-11-14T09:29:30.447Z,6.82
2022-11-14T09:31:59.602Z,6.82
2022-11-14T09:34:28.256Z,6.81
2022-11-14T09:37:01.357Z,6.80
2022-11-14T09:39:38.305Z,6.77
2022-11-14T09:42:47.819Z,6.78
2022-11-14T09:45:22.653Z,6.81
2022-11-14T09:48:14.810Z,6.83
2022-11-14T09:51:21.043Z,6.89
2022-11-14T09:54:20.363Z,6.90
2022-11-14T09:56:53.604Z,6.91
2022-11-14T09:59:22.120Z,7.04
2022-11-14T10:02:03.400Z,7.24
2022-11-14T10:05:08.305Z,7.27
2022-11-14T10:08:05.187Z,7.24
2022-11-14T10:11:09.475Z,7.38
2022-11-14T10:13:51.427Z,7.55
2022-11-14T10:16:43.962Z,7.71
2022-11-14T10:19:20.162Z,7.79
2022-11-14T10:22:09.023Z,7.73
2022-11-14T10:25:04.910Z,7.71
2022-11-14T10:27:55.433Z,7.77
2022-11-14T10:30:42.581Z,7.75
2022-11-14T10:33:30.524Z,7.81
2022-11-14T10:36:42.797Z,8.01
2022-11-14T10:39:39.810Z,8.11
2022-11-14T10:42:37.290Z,8.01
2022-11-14T10:45:27.744Z,8.00
2022-11-14T10:48:11.013Z,7.94
2022-11-14T10:50:50.364Z,7.83
2022-11-14T10:53:57.031Z,7.79
2022-11-14T10:56:30.918Z,7.86
2022-11-14T10:58:59.730Z,7.94
2022-11-14T11:01:35.856Z,7.91
2022-11-14T11:04:25.211Z,7.80
2022-11-14T11:06:56.735Z,7.80
2022-11-14T11:09:46.577Z,7.80
2022-11-14T11:12:20.668Z,7.77
2022-11-14T11:15:08.313Z,7.73
2022-11-14T11:17:42.790Z,7.66
2022-11-14T11:20:23.147Z,7.63
2022-11-14T11:23:22.054Z,7.63
2022-11-14T11:26:16.178Z,7.63
2022-11-14T11:28:44.481Z,7.64
2022-11-14T11:31:12.867Z,7.64
2022-11-14T11:33:43.240Z,7.66
2022-11-14T11:36:19.230Z,7.70
2022-11-14T11:38:48.288Z,7.77
2022-11-14T11:44:33.529Z,7.96
2022-11-14T11:47:08.666Z,8.03
2022-11-14T11:49:45.408Z,8.04
2022-11-14T11:52:37.866Z,7.99
2022-11-14T11:55:10.576Z,7.97
2022-11-14T11:58:03.566Z,7.99
2022-11-14T12:00:33.166Z,7.98
2022-11-14T12:03:10.492Z,8.01
2022-11-14T12:05:54.226Z,8.05
2022-11-14T12:08:28.461Z,8.06
2022-11-14T12:10:58.905Z,8.05
2022-11-14T12:14:04.991Z,8.04
2022-11-14T12:17:02.921Z,8.06
2022-11-14T12:19:31.206Z,8.07
2022-11-14T12:22:11.245Z,8.05
2022-11-14T12:24:42.269Z,8.07
2022-11-14T12:27:34.211Z,8.10
2022-11-14T12:30:25.069Z,8.13
2022-11-14T12:33:30.027Z,8.17
2022-11-14T12:36:02.206Z,8.23
2022-11-14T12:38:43.643Z,8.24
2022-11-14T12:41:13.395Z,8.24
2022-11-14T12:43:43.721Z,8.23
2022-11-14T12:46:14.091Z,8.21
2022-11-14T12:48:44.437Z,8.20
2022-11-14T12:51:28.040Z,8.21
2022-11-14T12:53:58.190Z,8.17
2022-11-14T12:56:53.800Z,8.16
2022-11-14T12:59:53.187Z,8.15
2022-11-14T13:02:49.799Z,8.19
2022-11-14T13:06:16.142Z,8.23
2022-11-14T13:09:09.808Z,8.26
2022-11-14T13:12:02.802Z,8.27
2022-11-14T13:14:50.836Z,8.27
2022-11-14T13:17:42.722Z,8.30
2022-11-14T13:20:44.618Z,8.32
2022-11-14T13:23:33.701Z,8.35
2022-11-14T13:26:11.505Z,8.37
2022-11-14T13:28:50.192Z,8.37
2022-11-14T13:31:19.755Z,8.38
2022-11-14T13:33:50.572Z,8.37
2022-11-14T13:36:31.010Z,8.36
2022-11-14T13:39:21.801Z,8.33
2022-11-14T13:42:26.429Z,8.29
2022-11-14T13:45:01.652Z,8.27
2022-11-14T13:47:51.770Z,8.21
2022-11-14T13:50:29.920Z,8.21
2022-11-14T13:52:59.651Z,8.17
2022-11-14T13:55:33.679Z,8.14
2022-11-14T13:58:22.886Z,8.12
2022-11-14T14:01:16.358Z,8.11
2022-11-14T14:04:09.406Z,8.09
2022-11-14T14:07:14.303Z,8.06
2022-11-14T14:10:09.750Z,8.05
2022-11-14T14:12:39.439Z,8.03
2022-11-14T14:15:16.430Z,8.01
2022-11-14T14:18:49.272Z,7.97
2022-11-14T14:21:33.500Z,7.91
2022-11-14T14:24:12.985Z,7.86
2022-11-14T14:27:02.848Z,7.80
2022-11-14T14:29:48.312Z,7.74
2022-11-14T14:32:19.173Z,7.68
2022-11-14T14:34:47.710Z,7.64
2022-11-14T14:37:24.642Z,7.59
2022-11-14T14:40:01.456Z,7.54
2022-11-14T14:42:49.498Z,7.48
2022-11-14T14:45:21.170Z,7.41
2022-11-14T14:47:58.841Z,7.35
2022-11-14T14:50:35.989Z,7.28
2022-11-14T14:53:05.087Z,7.19
2022-11-14T14:55:35.930Z,7.11
2022-11-14T14:58:28.490Z,7.04
2022-11-14T15:01:07.547Z,6.98
2022-11-14T15:03:49.170Z,6.91
2022-11-14T15:06:20.753Z,6.83
2022-11-14T15:08:49.937Z,6.78
2022-11-14T15:11:18.420Z,6.72
2022-11-14T15:13:49.484Z,6.66
2022-11-14T15:16:18.201Z,6.60
2022-11-14T15:18:48.447Z,6.55
2022-11-14T15:21:27.497Z,6.49
2022-11-14T15:24:12.988Z,6.44
2022-11-14T15:26:45.389Z,6.39
2022-11-14T15:29:27.387Z,6.35
2022-11-14T15:31:58.870Z,6.29
2022-11-14T15:34:31.669Z,6.22
2022-11-14T15:37:14.759Z,6.16
2022-11-14T15:39:44.223Z,6.10
2022-11-14T15:42:16.713Z,6.06
2022-11-14T15:44:47.129Z,6.01
2022-11-14T15:47:39.519Z,5.98
2022-11-14T15:50:13.729Z,5.94
2022-11-14T15:53:22.967Z,5.90
2022-11-14T15:55:51.322Z,5.85
2022-11-14T15:58:28.152Z,5.81
2022-11-14T16:00:58.410Z,5.77
2022-11-14T16:03:27.190Z,5.72
2022-11-14T16:05:55.722Z,5.69
2022-11-14T16:08:23.989Z,5.65
2022-11-14T16:10:52.378Z,5.61
2022-11-14T16:13:20.785Z,5.56
2022-11-14T16:15:49.202Z,5.52
2022-11-14T16:18:17.594Z,5.50
2022-11-14T16:20:46.008Z,5.47
2022-11-14T16:23:14.484Z,5.45
2022-11-14T16:25:42.812Z,5.41
2022-11-14T16:28:11.283Z,5.39
2022-11-14T16:30:39.695Z,5.35
2022-11-14T16:33:08.936Z,5.33
2022-11-14T16:35:37.522Z,5.28
2022-11-14T16:38:06.990Z,5.26
2022-11-14T16:40:35.415Z,5.26
2022-11-14T16:43:04.314Z,5.23
2022-11-14T16:45:35.560Z,5.21
2022-11-14T16:48:04.078Z,5.21
2022-11-14T16:50:32.708Z,5.19
2022-11-14T16:53:01.130Z,5.18
2022-11-14T16:55:29.700Z,5.16
2022-11-14T16:57:58.207Z,5.14
2022-11-14T17:00:28.342Z,5.12
2022-11-14T17:03:03.178Z,5.09
2022-11-14T17:05:31.735Z,5.07
2022-11-14T17:08:00.148Z,5.03
2022-11-14T17:10:28.796Z,5.00
2022-11-14T17:12:57.565Z,4.96
2022-11-14T17:15:26.122Z,4.95
2022-11-14T17:17:54.750Z,4.93
2022-11-14T17:20:27.307Z,4.92
2022-11-14T17:22:56.610Z,4.88
2022-11-14T17:25:25.957Z,4.85
2022-11-14T17:27:55.257Z,4.83
2022-11-14T17:30:24.088Z,4.81
2022-11-14T17:32:56.360Z,4.78
2022-11-14T17:35:25.415Z,4.74
2022-11-14T17:37:58.980Z,4.72
2022-11-14T17:40:29.486Z,4.69
2022-11-14T17:42:58.254Z,4.65
2022-11-14T17:45:26.977Z,4.66
2022-11-14T17:47:55.965Z,4.62
2022-11-14T17:50:24.480Z,4.59
2022-11-14T17:52:53.856Z,4.55
2022-11-14T17:55:22.657Z,4.54
2022-11-14T17:57:51.266Z,4.52
2022-11-14T18:00:20.564Z,4.50
2022-11-14T18:02:50.647Z,4.47
2022-11-14T18:05:20.207Z,4.45
2022-11-14T18:07:50.069Z,4.44
2022-11-14T18:10:19.339Z,4.41
2022-11-14T18:12:48.413Z,4.38
2022-11-14T18:15:17.678Z,4.37
2022-11-14T18:17:46.342Z,4.35
2022-11-14T18:20:15.682Z,4.32
2022-11-14T18:22:44.736Z,4.32
2022-11-14T18:25:14.250Z,4.30
2022-11-14T18:27:44.050Z,4.30
2022-11-14T18:30:39.602Z,4.27
2022-11-14T18:33:03.042Z,4.27
2022-11-14T18:35:32.370Z,4.25
2022-11-14T18:38:02.275Z,4.26
2022-11-14T18:40:32.044Z,4.24
2022-11-14T18:43:01.332Z,4.24
2022-11-14T18:45:30.619Z,4.26
2022-11-14T18:48:00.470Z,4.26
2022-11-14T18:50:31.532Z,4.27
2022-11-14T18:53:01.110Z,4.27
2022-11-14T18:55:30.609Z,4.28
2022-11-14T18:58:00.048Z,4.28
2022-11-14T19:00:33.808Z,4.28
2022-11-14T19:03:06.297Z,4.27
2022-11-14T19:05:37.520Z,4.26
2022-11-14T19:08:08.232Z,4.27
2022-11-14T19:10:37.490Z,4.28
2022-11-14T19:13:06.794Z,4.30
2022-11-14T19:15:35.917Z,4.31
2022-11-14T19:18:05.300Z,4.30
2022-11-14T19:20:34.884Z,4.30
2022-11-14T19:23:04.311Z,4.31
2022-11-14T19:25:38.082Z,4.30
2022-11-14T19:28:07.358Z,4.30
2022-11-14T19:30:37.072Z,4.29
2022-11-14T19:33:07.393Z,4.30
2022-11-14T19:35:40.195Z,4.30
2022-11-14T19:38:10.085Z,4.31
2022-11-14T19:40:40.328Z,4.31
2022-11-14T19:43:12.273Z,4.29
2022-11-14T19:45:42.425Z,4.28
2022-11-14T19:48:14.646Z,4.27
2022-11-14T19:50:44.396Z,4.24
2022-11-14T19:53:14.389Z,4.24
2022-11-14T19:55:44.511Z,4.23
2022-11-14T19:58:13.544Z,4.21
2022-11-14T20:00:42.785Z,4.20
2022-11-14T20:03:15.082Z,4.18
2022-11-14T20:05:44.399Z,4.15
2022-11-14T20:08:13.483Z,4.15
2022-11-14T20:10:48.658Z,4.16
2022-11-14T20:13:17.091Z,4.15
2022-11-14T20:15:45.703Z,4.14
2022-11-14T20:18:14.540Z,4.12
2022-11-14T20:20:43.932Z,4.10
2022-11-14T20:23:16.963Z,4.08
2022-11-14T20:25:52.515Z,4.05
2022-11-14T20:28:22.578Z,4.02
2022-11-14T20:30:52.233Z,4.00
2022-11-14T20:33:21.981Z,4.00
2022-11-14T20:35:51.913Z,3.99
2022-11-14T20:38:21.649Z,3.97
2022-11-14T20:40:59.566Z,3.95
2022-11-14T20:43:29.677Z,3.93
2022-11-14T20:46:13.716Z,3.92
2022-11-14T20:48:43.464Z,3.88
2022-11-14T20:51:14.595Z,3.86
2022-11-14T20:53:44.326Z,3.84
2022-11-14T20:56:16.956Z,3.82
2022-11-14T20:58:48.932Z,3.79
2022-11-14T21:01:18.321Z,3.77
2022-11-14T21:03:48.474Z,3.75
2022-11-14T21:06:17.617Z,3.73
2022-11-14T21:08:46.912Z,3.72
2022-11-14T21:11:18.429Z,3.69
2022-11-14T21:13:56.828Z,3.68
2022-11-14T21:16:37.296Z,3.66
2022-11-14T21:19:07.739Z,3.64
2022-11-14T21:21:39.098Z,3.61
2022-11-14T21:24:07.879Z,3.59
2022-11-14T21:26:39.781Z,3.59
2022-11-14T21:29:13.224Z,3.60
2022-11-14T21:31:45.005Z,3.60
2022-11-14T21:34:16.963Z,3.60
2022-11-14T21:36:47.099Z,3.61
2022-11-14T21:39:17.689Z,3.62
2022-11-14T21:41:48.656Z,3.63
2022-11-14T21:44:18.166Z,3.63
2022-11-14T21:46:48.943Z,3.64
2022-11-14T21:49:17.480Z,3.64
2022-11-14T21:51:45.843Z,3.64
2022-11-14T21:54:14.305Z,3.65
2022-11-14T21:56:42.570Z,3.64
2022-11-14T21:59:15.604Z,3.65
2022-11-14T22:02:05.690Z,3.66
2022-11-14T22:04:35.333Z,3.64
2022-11-14T22:07:08.590Z,3.62
2022-11-14T22:09:41.116Z,3.61
2022-11-14T22:12:12.565Z,3.58
2022-11-14T22:14:40.926Z,3.57
2022-11-14T22:17:09.267Z,3.56
2022-11-14T22:19:37.442Z,3.56
2022-11-14T22:22:05.820Z,3.55
2022-11-14T22:24:34.109Z,3.56
2022-11-14T22:27:02.427Z,3.56
2022-11-14T22:29:30.735Z,3.56
2022-11-14T22:31:59.064Z,3.55
2022-11-14T22:34:27.378Z,3.55
2022-11-14T22:36:55.688Z,3.57
2022-11-14T22:39:30.063Z,3.56
2022-11-14T22:41:58.435Z,3.55
2022-11-14T22:44:26.766Z,3.55
2022-11-14T22:46:55.068Z,3.54
2022-11-14T22:49:23.395Z,3.53
2022-11-14T22:51:51.617Z,3.52
2022-11-14T22:54:20.205Z,3.51
2022-11-14T22:56:48.582Z,3.50
2022-11-14T22:59:16.994Z,3.49
2022-11-14T23:01:44.021Z,3.50
2022-11-14T23:04:11.133Z,3.50
2022-11-14T23:06:39.611Z,3.50
2022-11-14T23:09:07.974Z,3.49
2022-11-14T23:11:36.271Z,3.48
2022-11-14T23:14:04.550Z,3.47
2022-11-14T23:16:34.283Z,3.46
2022-11-14T23:19:04.437Z,3.46
2022-11-14T23:21:36.538Z,3.44
2022-11-14T23:24:08.625Z,3.43
2022-11-14T23:26:37.015Z,3.44
2022-11-14T23:29:05.319Z,3.45
2022-11-14T23:31:33.688Z,3.46
2022-11-14T23:34:01.936Z,3.46
2022-11-14T23:36:30.506Z,3.47
2022-11-14T23:42:58.604Z,3.50
2022-11-14T23:45:27.049Z,3.52
2022-11-14T23:47:55.491Z,3.53
2022-11-14T23:50:24.025Z,3.54
2022-11-14T23:52:52.385Z,3.56
2022-11-14T23:55:20.859Z,3.57
2022-11-14T23:57:49.235Z,3.56
